createdAt,value
2023-01-05T00:01:06.974Z,45.95
2023-01-05T00:06:07.847Z,43.72
2023-01-05T00:11:23.660Z,43.72
2023-01-05T00:16:38.645Z,42.60
2023-01-05T00:21:53.521Z,39.65
2023-01-05T00:26:49.768Z,37.13
2023-01-05T00:31:46.081Z,36.17
2023-01-05T00:36:42.352Z,37.45
2023-01-05T00:41:38.595Z,35.05
2023-01-05T00:46:34.837Z,34.25
2023-01-05T00:51:31.115Z,36.60
2023-01-05T00:56:27.390Z,33.72
2023-01-05T01:01:23.737Z,28.80
2023-01-05T01:06:20.018Z,27.65
2023-01-05T01:11:16.750Z,27.77
2023-01-05T01:16:14.036Z,30.17
2023-01-05T01:21:10.418Z,28.08
2023-01-05T01:26:07.533Z,25.08
2023-01-05T01:31:03.792Z,23.58
2023-01-05T01:36:03.240Z,23.02
2023-01-05T01:40:59.535Z,20.95
2023-01-05T01:45:55.759Z,19.58
2023-01-05T01:50:53.675Z,21.25
2023-01-05T01:55:50.830Z,19.88
2023-01-05T02:00:47.247Z,19.55
2023-01-05T02:05:43.472Z,19.30
2023-01-05T02:10:53.364Z,18.13
2023-01-05T02:15:58.853Z,17.30
2023-01-05T02:21:03.902Z,17.83
2023-01-05T02:26:11.089Z,17.33
2023-01-05T02:31:22.553Z,19.13
2023-01-05T02:36:28.498Z,13.88
2023-01-05T02:41:37.369Z,13.48
2023-01-05T02:46:33.666Z,13.82
2023-01-05T02:51:33.558Z,13.23
2023-01-05T02:56:44.307Z,12.98
2023-01-05T03:01:42.923Z,12.60
2023-01-05T03:06:47.131Z,12.05
2023-01-05T03:12:04.842Z,11.73
2023-01-05T03:17:01.591Z,11.68
2023-01-05T03:22:20.145Z,12.23
2023-01-05T03:27:35.684Z,11.95
2023-01-05T03:32:52.609Z,11.27
2023-01-05T03:37:51.581Z,12.00
2023-01-05T03:42:48.179Z,12.07
2023-01-05T03:47:44.421Z,12.00
2023-01-05T03:52:40.803Z,12.48
2023-01-05T03:57:37.095Z,13.00
2023-01-05T04:02:33.654Z,12.18
2023-01-05T04:07:29.931Z,12.55
2023-01-05T04:12:26.231Z,10.95
2023-01-05T04:17:22.441Z,11.65
2023-01-05T04:22:23.636Z,13.15
2023-01-05T04:27:23.079Z,14.00
2023-01-05T04:32:19.460Z,15.98
2023-01-05T04:37:15.669Z,14.10
2023-01-05T04:42:12.080Z,15.15
2023-01-05T04:47:08.347Z,14.77
2023-01-05T04:52:04.585Z,16.05
2023-01-05T04:57:00.909Z,14.93
2023-01-05T05:01:57.248Z,15.23
2023-01-05T05:06:53.598Z,15.93
2023-01-05T05:11:49.854Z,16.85
2023-01-05T05:16:46.103Z,16.75
2023-01-05T05:21:42.432Z,17.15
2023-01-05T05:26:38.669Z,18.05
2023-01-05T05:31:35.830Z,16.35
2023-01-05T05:36:32.648Z,16.15
2023-01-05T05:41:29.002Z,15.38
2023-01-05T05:46:25.341Z,15.13
2023-01-05T05:51:21.674Z,15.18
2023-01-05T05:56:18.146Z,15.07
2023-01-05T06:01:14.557Z,14.90
2023-01-05T06:06:10.930Z,14.88
2023-01-05T06:11:08.046Z,13.38
2023-01-05T06:16:04.782Z,15.38
2023-01-05T06:21:02.017Z,15.20
2023-01-05T06:25:58.465Z,15.65
2023-01-05T06:30:54.728Z,17.23
2023-01-05T06:35:51.075Z,16.38
2023-01-05T06:40:47.588Z,16.27
2023-01-05T06:45:44.149Z,15.88
2023-01-05T06:50:40.395Z,16.60
2023-01-05T06:55:36.630Z,15.18
2023-01-05T07:00:33.040Z,14.45
2023-01-05T07:05:31.502Z,14.90
2023-01-05T07:10:28.237Z,14.82
2023-01-05T07:15:24.558Z,13.15
2023-01-05T07:20:20.859Z,11.93
2023-01-05T07:25:17.256Z,12.05
2023-01-05T07:30:13.823Z,11.77
2023-01-05T07:35:10.117Z,12.65
2023-01-05T07:40:06.905Z,13.63
2023-01-05T07:45:03.403Z,13.30
2023-01-05T07:49:59.667Z,14.00
2023-01-05T07:54:55.911Z,14.27
2023-01-05T07:59:52.270Z,14.55
2023-01-05T08:04:48.553Z,14.85
2023-01-05T08:10:03.705Z,13.00
2023-01-05T08:14:59.935Z,16.52
2023-01-05T08:19:56.173Z,15.30
2023-01-05T08:24:52.571Z,15.73
2023-01-05T08:29:48.874Z,14.82
2023-01-05T08:34:49.103Z,17.45
2023-01-05T08:39:48.278Z,27.00
2023-01-05T08:44:44.634Z,35.83
2023-01-05T08:49:41.092Z,43.40
2023-01-05T08:54:37.398Z,44.38
2023-01-05T08:59:33.703Z,45.15
2023-01-05T09:04:30.167Z,46.13
2023-01-05T09:09:26.505Z,45.42
2023-01-05T09:14:22.800Z,52.25
2023-01-05T09:19:20.057Z,50.47
2023-01-05T09:24:16.431Z,52.28
2023-01-05T09:29:13.139Z,48.30
2023-01-05T09:34:10.002Z,50.40
2023-01-05T09:39:06.432Z,47.50
2023-01-05T09:44:05.287Z,49.83
2023-01-05T09:49:03.375Z,49.58
2023-01-05T09:54:00.649Z,42.90
2023-01-05T09:59:10.945Z,40.33
2023-01-05T10:04:15.341Z,39.20
2023-01-05T10:09:20.178Z,37.65
2023-01-05T10:14:18.296Z,38.30
2023-01-05T10:19:15.792Z,32.08
2023-01-05T10:24:15.061Z,27.63
2023-01-05T10:29:13.919Z,26.02
2023-01-05T10:34:16.298Z,23.73
2023-01-05T10:44:27.788Z,23.88
2023-01-05T10:49:29.961Z,23.10
2023-01-05T10:54:32.069Z,21.38
2023-01-05T10:59:28.413Z,20.15
2023-01-05T11:04:33.863Z,21.60
2023-01-05T11:09:31.658Z,22.52
2023-01-05T11:14:35.776Z,25.10
2023-01-05T11:19:34.635Z,26.42
2023-01-05T11:24:32.484Z,26.58
2023-01-05T11:29:29.611Z,26.88
2023-01-05T11:34:25.935Z,25.90
2023-01-05T11:39:30.369Z,25.10
2023-01-05T11:44:26.716Z,23.52
2023-01-05T11:49:23.699Z,20.83
2023-01-05T11:54:31.233Z,20.52
2023-01-05T11:59:30.706Z,18.42
2023-01-05T12:04:31.155Z,19.60
2023-01-05T12:09:35.151Z,17.98
2023-01-05T12:14:50.338Z,17.75
2023-01-05T12:20:08.905Z,16.75
2023-01-05T12:25:24.149Z,16.73
2023-01-05T12:32:48.015Z,16.83
2023-01-05T12:36:07.284Z,17.40
2023-01-05T12:41:17.822Z,17.35
2023-01-05T12:46:30.196Z,18.88
2023-01-05T12:51:28.757Z,17.30
2023-01-05T12:56:34.542Z,18.05
2023-01-05T13:01:32.914Z,17.38
2023-01-05T13:06:33.482Z,14.60
2023-01-05T13:11:44.247Z,14.88
2023-01-05T13:16:45.526Z,15.40
2023-01-05T13:21:43.905Z,13.63
2023-01-05T13:26:40.406Z,12.70
2023-01-05T13:31:36.791Z,13.15
2023-01-05T13:36:56.550Z,11.98
2023-01-05T13:42:11.480Z,12.98
2023-01-05T13:47:30.912Z,11.82
2023-01-05T13:52:46.980Z,14.23
2023-01-05T13:57:43.962Z,12.30
2023-01-05T14:02:41.751Z,13.23
2023-01-05T14:07:40.052Z,13.20
2023-01-05T14:12:43.695Z,12.52
2023-01-05T14:17:52.242Z,12.77
2023-01-05T14:22:48.561Z,13.00
2023-01-05T14:28:23.284Z,13.27
2023-01-05T14:33:20.417Z,13.32
2023-01-05T14:38:19.539Z,14.00
2023-01-05T14:43:35.145Z,15.18
2023-01-05T14:48:31.503Z,16.80
2023-01-05T14:53:39.928Z,19.40
2023-01-05T14:58:36.514Z,19.33
2023-01-05T15:03:34.398Z,21.15
2023-01-05T15:08:50.691Z,22.33
2023-01-05T15:14:06.934Z,25.13
2023-01-05T15:19:13.075Z,27.80
2023-01-05T15:24:28.124Z,27.38
2023-01-05T15:29:43.184Z,26.90
2023-01-05T15:34:43.287Z,28.67
2023-01-05T15:39:53.156Z,30.17
2023-01-05T15:44:51.513Z,29.92
2023-01-05T15:49:49.033Z,29.27
2023-01-05T15:54:56.236Z,30.00
2023-01-05T15:59:53.090Z,29.45
2023-01-05T16:05:06.907Z,29.27
2023-01-05T16:10:04.996Z,29.33
2023-01-05T16:15:04.825Z,30.60
2023-01-05T16:20:07.781Z,30.30
2023-01-05T16:25:06.262Z,28.95
2023-01-05T16:30:21.401Z,27.85
2023-01-05T16:35:29.116Z,29.08
2023-01-05T16:40:25.352Z,30.42
2023-01-05T16:45:25.961Z,28.05
2023-01-05T16:50:22.363Z,27.08
2023-01-05T16:55:44.738Z,28.10
2023-01-05T17:00:41.241Z,30.35
2023-01-05T17:05:37.443Z,31.73
2023-01-05T17:10:33.841Z,30.55
2023-01-05T17:15:32.716Z,31.55
2023-01-05T17:20:31.803Z,29.42
2023-01-05T17:25:31.875Z,30.08
2023-01-05T17:30:28.174Z,33.50
2023-01-05T17:35:24.867Z,31.10
2023-01-05T17:40:21.804Z,31.52
2023-01-05T17:45:19.707Z,31.75
2023-01-05T17:50:17.348Z,30.70
2023-01-05T17:55:13.685Z,30.73
2023-01-05T18:00:11.703Z,33.30
2023-01-05T18:05:08.939Z,31.83
2023-01-05T18:15:04.992Z,36.42
2023-01-05T18:20:01.743Z,38.55
2023-01-05T18:24:58.011Z,36.72
2023-01-05T18:29:54.676Z,37.30
2023-01-05T18:34:51.108Z,37.03
2023-01-05T18:39:47.366Z,38.47
2023-01-05T18:44:43.628Z,42.05
2023-01-05T18:49:39.951Z,39.75
2023-01-05T18:54:36.313Z,41.80
2023-01-05T18:59:32.576Z,42.40
2023-01-05T19:04:28.942Z,41.55
2023-01-05T19:09:25.249Z,41.55
2023-01-05T19:14:21.580Z,43.10
2023-01-05T19:19:19.393Z,45.25
2023-01-05T19:24:16.825Z,45.45
2023-01-05T19:29:13.737Z,42.80
2023-01-05T19:34:12.515Z,49.22
2023-01-05T19:39:12.024Z,48.70
2023-01-05T19:44:11.757Z,51.47
2023-01-05T19:49:13.151Z,51.28
2023-01-05T19:54:10.142Z,50.40
2023-01-05T19:59:08.015Z,49.63
2023-01-05T20:04:04.913Z,48.47
2023-01-05T20:09:02.082Z,46.78
2023-01-05T20:13:58.278Z,47.95
2023-01-05T20:18:54.699Z,47.10
2023-01-05T20:23:50.969Z,43.92
2023-01-05T20:28:47.692Z,44.55
2023-01-05T20:33:43.941Z,40.00
2023-01-05T20:38:40.391Z,38.72
2023-01-05T20:43:36.601Z,38.58
2023-01-05T20:48:32.880Z,40.05
2023-01-05T20:53:29.761Z,36.58
2023-01-05T20:58:26.821Z,36.33
2023-01-05T21:03:23.019Z,36.03
2023-01-05T21:08:19.292Z,34.67
2023-01-05T21:13:31.839Z,38.15
2023-01-05T21:18:29.436Z,37.72
2023-01-05T21:23:25.763Z,39.75
2023-01-05T21:28:22.102Z,40.22
2023-01-05T21:33:18.319Z,39.75
2023-01-05T21:38:14.560Z,40.13
2023-01-05T21:43:10.847Z,39.60
2023-01-05T21:48:07.372Z,41.83
2023-01-05T21:53:22.390Z,41.78
2023-01-05T21:58:18.593Z,38.72
2023-01-05T22:03:14.928Z,39.83
2023-01-05T22:08:11.116Z,40.63
2023-01-05T22:13:07.391Z,39.75
2023-01-05T22:18:03.653Z,42.90
2023-01-05T22:22:59.893Z,42.38
2023-01-05T22:27:56.224Z,44.97
2023-01-05T22:32:52.454Z,46.45
2023-01-05T22:37:50.721Z,45.25
2023-01-05T22:42:47.019Z,46.22
2023-01-05T22:47:43.264Z,47.55
2023-01-05T22:52:39.616Z,50.58
2023-01-05T22:57:35.804Z,49.75
2023-01-05T23:02:32.061Z,53.72
2023-01-05T23:07:28.268Z,49.53
2023-01-05T23:12:24.512Z,49.53
2023-01-05T23:17:20.754Z,50.22
2023-01-05T23:22:17.021Z,51.08
2023-01-05T23:27:13.232Z,51.25
2023-01-05T23:32:10.624Z,51.45
2023-01-05T23:37:06.840Z,50.70
2023-01-05T23:42:03.132Z,49.78
2023-01-05T23:46:59.436Z,48.10
2023-01-05T23:51:55.776Z,50.22
2023-01-05T23:56:52.004Z,48.63
